createdAt,value
2022-08-28T00:02:21.060Z,1.67
2022-08-28T00:04:50.230Z,1.95
2022-08-28T00:07:19.351Z,1.88
2022-08-28T00:09:49.186Z,1.88
2022-08-28T00:12:17.945Z,1.83
2022-08-28T00:14:46.496Z,1.90
2022-08-28T00:17:14.990Z,1.40
2022-08-28T00:19:43.597Z,1.60
2022-08-28T00:22:12.182Z,2.00
2022-08-28T00:24:42.816Z,1.70
2022-08-28T00:27:30.449Z,1.70
2022-08-28T00:29:59.209Z,1.55
2022-08-28T00:32:28.361Z,1.60
2022-08-28T00:34:56.847Z,1.73
2022-08-28T00:37:25.321Z,1.50
2022-08-28T00:39:54.767Z,1.75
2022-08-28T00:42:24.716Z,1.70
2022-08-28T00:44:53.182Z,1.55
2022-08-28T00:47:26.458Z,1.50
2022-08-28T00:49:57.289Z,1.63
2022-08-28T00:52:26.917Z,1.65
2022-08-28T00:54:59.940Z,1.70
2022-08-28T00:57:33.317Z,1.88
2022-08-28T01:00:02.200Z,1.83
2022-08-28T01:02:31.844Z,1.70
2022-08-28T01:05:00.403Z,2.20
2022-08-28T01:07:29.141Z,1.60
2022-08-28T01:09:59.313Z,1.60
2022-08-28T01:12:33.725Z,1.50
2022-08-28T01:15:04.762Z,1.80
2022-08-28T01:17:35.965Z,1.55
2022-08-28T01:22:42.101Z,2.15
2022-08-28T01:25:15.204Z,1.83
2022-08-28T01:27:43.984Z,1.75
2022-08-28T01:30:15.689Z,1.52
2022-08-28T01:32:49.474Z,1.52
2022-08-28T01:35:21.106Z,1.60
2022-08-28T01:37:49.698Z,1.67
2022-08-28T01:40:24.870Z,1.70
2022-08-28T01:42:55.098Z,1.83
2022-08-28T01:45:26.217Z,1.77
2022-08-28T01:47:57.375Z,2.10
2022-08-28T01:50:25.863Z,1.75
2022-08-28T01:52:54.320Z,1.83
2022-08-28T01:55:24.271Z,1.67
2022-08-28T01:57:56.160Z,1.70
2022-08-28T02:00:27.554Z,1.65
2022-08-28T02:02:58.253Z,1.70
2022-08-28T02:05:29.813Z,1.85
2022-08-28T02:07:58.811Z,1.60
2022-08-28T02:10:30.444Z,2.00
2022-08-28T02:12:59.841Z,1.50
2022-08-28T02:15:30.596Z,1.90
2022-08-28T02:17:59.853Z,1.48
2022-08-28T02:20:30.506Z,1.80
2022-08-28T02:22:59.446Z,1.67
2022-08-28T02:25:30.824Z,1.98
2022-08-28T02:27:59.590Z,1.70
2022-08-28T02:30:28.633Z,1.60
2022-08-28T02:32:57.869Z,1.65
2022-08-28T02:35:26.435Z,2.00
2022-08-28T02:37:55.592Z,1.70
2022-08-28T02:40:25.600Z,1.52
2022-08-28T02:42:55.591Z,1.92
2022-08-28T02:45:24.113Z,1.63
2022-08-28T02:47:53.933Z,1.85
2022-08-28T02:50:22.756Z,1.80
2022-08-28T02:52:51.634Z,1.80
2022-08-28T02:55:21.243Z,1.90
2022-08-28T02:57:50.299Z,1.73
2022-08-28T03:00:23.508Z,2.00
2022-08-28T03:02:53.356Z,1.70
2022-08-28T03:05:25.014Z,1.85
2022-08-28T03:07:54.412Z,2.08
2022-08-28T03:10:23.045Z,1.77
2022-08-28T03:12:51.709Z,1.95
2022-08-28T03:15:22.233Z,1.70
2022-08-28T03:17:51.235Z,1.98
2022-08-28T03:20:20.069Z,1.98
2022-08-28T03:23:06.491Z,2.10
2022-08-28T03:25:35.025Z,1.90
2022-08-28T03:28:03.911Z,1.98
2022-08-28T03:30:33.937Z,2.00
2022-08-28T03:33:02.997Z,2.50
2022-08-28T03:35:31.755Z,2.20
2022-08-28T03:38:00.393Z,2.42
2022-08-28T03:40:29.075Z,2.17
2022-08-28T03:42:57.637Z,2.17
2022-08-28T03:45:27.946Z,2.38
2022-08-28T03:47:57.893Z,2.22
2022-08-28T03:50:26.409Z,2.78
2022-08-28T03:52:57.471Z,2.10
2022-08-28T03:55:26.759Z,2.45
2022-08-28T03:57:55.353Z,2.22
2022-08-28T04:00:24.057Z,2.30
2022-08-28T04:02:53.514Z,2.72
2022-08-28T04:05:23.442Z,2.40
2022-08-28T04:07:53.850Z,2.35
2022-08-28T04:10:22.412Z,2.70
2022-08-28T04:12:50.984Z,2.30
2022-08-28T04:15:20.277Z,2.40
2022-08-28T04:17:49.497Z,2.65
2022-08-28T04:20:18.015Z,2.97
2022-08-28T04:22:48.015Z,2.47
2022-08-28T04:25:16.570Z,2.60
2022-08-28T04:27:45.112Z,3.17
2022-08-28T04:30:14.480Z,2.70
2022-08-28T04:32:43.629Z,2.60
2022-08-28T04:35:14.628Z,3.00
2022-08-28T04:37:44.194Z,3.00
2022-08-28T04:40:15.847Z,2.72
2022-08-28T04:42:45.262Z,3.13
2022-08-28T04:45:13.826Z,2.80
2022-08-28T04:47:43.318Z,3.50
2022-08-28T04:50:12.494Z,3.40
2022-08-28T04:52:43.119Z,3.08
2022-08-28T04:55:11.727Z,3.10
2022-08-28T04:57:41.645Z,3.58
2022-08-28T05:00:12.350Z,3.63
2022-08-28T05:02:42.964Z,3.40
2022-08-28T05:05:11.817Z,3.40
2022-08-28T05:07:40.361Z,3.10
2022-08-28T05:10:13.541Z,3.00
2022-08-28T05:12:43.905Z,3.08
2022-08-28T05:15:13.007Z,3.08
2022-08-28T05:17:41.665Z,3.13
2022-08-28T05:20:10.991Z,3.10
2022-08-28T05:22:39.487Z,3.45
2022-08-28T05:25:08.766Z,3.08
2022-08-28T05:27:38.259Z,3.20
2022-08-28T05:30:10.609Z,3.22
2022-08-28T05:32:39.493Z,3.42
2022-08-28T05:35:08.678Z,3.30
2022-08-28T05:37:37.497Z,3.20
2022-08-28T05:40:06.950Z,3.55
2022-08-28T05:42:38.870Z,3.22
2022-08-28T05:45:10.383Z,3.72
2022-08-28T05:47:38.916Z,2.97
2022-08-28T05:50:08.919Z,3.00
2022-08-28T05:52:37.575Z,3.40
2022-08-28T05:55:08.424Z,3.08
2022-08-28T05:57:37.186Z,3.20
2022-08-28T06:00:09.792Z,3.20
2022-08-28T06:02:39.788Z,3.25
2022-08-28T06:05:09.118Z,2.75
2022-08-28T06:07:42.005Z,3.25
2022-08-28T06:10:10.958Z,3.00
2022-08-28T06:12:39.465Z,2.75
2022-08-28T06:15:09.925Z,3.08
2022-08-28T06:17:40.272Z,3.17
2022-08-28T06:20:10.717Z,3.03
2022-08-28T06:22:39.237Z,2.92
2022-08-28T06:25:09.303Z,2.80
2022-08-28T06:27:39.249Z,3.55
2022-08-28T06:30:09.142Z,2.60
2022-08-28T06:32:39.050Z,2.78
2022-08-28T06:35:08.027Z,2.88
2022-08-28T06:37:38.480Z,2.80
2022-08-28T06:40:08.110Z,2.92
2022-08-28T06:42:36.940Z,2.47
2022-08-28T06:45:06.276Z,3.00
2022-08-28T06:47:34.897Z,2.88
2022-08-28T06:50:05.399Z,3.40
2022-08-28T06:52:35.021Z,2.72
2022-08-28T06:55:07.032Z,2.60
2022-08-28T06:57:36.286Z,2.63
2022-08-28T07:00:06.803Z,3.58
2022-08-28T07:02:35.648Z,3.00
2022-08-28T07:05:06.731Z,2.72
2022-08-28T07:07:35.451Z,2.38
2022-08-28T07:10:04.418Z,2.65
2022-08-28T07:12:33.505Z,2.25
2022-08-28T07:15:03.738Z,2.72
2022-08-28T07:17:32.702Z,2.63
2022-08-28T07:20:01.232Z,2.45
2022-08-28T07:22:32.468Z,2.38
2022-08-28T07:25:01.197Z,2.50
2022-08-28T07:27:29.814Z,2.58
2022-08-28T07:29:58.422Z,2.40
2022-08-28T07:32:27.343Z,2.65
2022-08-28T07:34:57.092Z,2.35
2022-08-28T07:37:27.097Z,2.35
2022-08-28T07:39:57.074Z,2.65
2022-08-28T07:42:43.025Z,2.40
2022-08-28T07:45:12.354Z,2.40
2022-08-28T07:47:41.381Z,2.28
2022-08-28T07:50:10.330Z,2.40
2022-08-28T07:52:39.054Z,2.60
2022-08-28T07:55:10.043Z,2.40
2022-08-28T07:57:38.771Z,2.17
2022-08-28T08:00:08.552Z,2.13
2022-08-28T08:02:40.186Z,2.38
2022-08-28T08:05:10.780Z,2.25
2022-08-28T08:07:43.747Z,2.13
2022-08-28T08:10:19.938Z,2.40
2022-08-28T08:12:49.298Z,2.30
2022-08-28T08:15:21.407Z,2.22
2022-08-28T08:17:51.817Z,1.98
2022-08-28T08:20:20.681Z,2.28
2022-08-28T08:22:49.549Z,2.10
2022-08-28T08:25:19.477Z,2.30
2022-08-28T08:27:48.100Z,2.20
2022-08-28T08:30:16.796Z,2.33
2022-08-28T08:32:45.339Z,2.17
2022-08-28T08:35:13.895Z,2.08
2022-08-28T08:37:42.435Z,2.40
2022-08-28T08:40:15.692Z,2.42
2022-08-28T08:42:51.106Z,1.90
2022-08-28T08:45:26.438Z,2.10
2022-08-28T08:47:57.086Z,2.67
2022-08-28T08:50:29.369Z,2.13
2022-08-28T08:53:17.159Z,1.90
2022-08-28T08:55:50.028Z,2.15
2022-08-28T08:58:25.597Z,2.50
2022-08-28T09:01:04.679Z,2.30
2022-08-28T09:03:50.487Z,2.10
2022-08-28T09:06:28.023Z,2.20
2022-08-28T09:09:00.949Z,2.25
2022-08-28T09:11:42.142Z,2.30
2022-08-28T09:14:17.089Z,2.00
2022-08-28T09:16:49.356Z,2.40
2022-08-28T09:19:22.699Z,2.17
2022-08-28T09:21:52.412Z,2.13
2022-08-28T09:24:25.365Z,2.08
2022-08-28T09:26:57.349Z,2.20
2022-08-28T09:29:32.178Z,2.50
2022-08-28T09:32:18.869Z,2.00
2022-08-28T09:35:02.694Z,2.13
2022-08-28T09:37:32.656Z,1.80
2022-08-28T09:40:23.601Z,1.77
2022-08-28T09:43:24.420Z,1.90
2022-08-28T09:45:58.105Z,2.00
2022-08-28T09:48:34.013Z,1.90
2022-08-28T09:51:04.920Z,2.10
2022-08-28T09:53:35.909Z,1.65
2022-08-28T09:56:12.056Z,1.73
2022-08-28T09:58:44.781Z,1.83
2022-08-28T10:01:31.357Z,1.60
2022-08-28T10:30:04.261Z,1.90
2022-08-28T10:32:55.432Z,2.00
2022-08-28T10:35:26.864Z,2.28
2022-08-28T10:38:06.045Z,2.08
2022-08-28T10:40:37.927Z,2.17
2022-08-28T10:43:11.459Z,2.33
2022-08-28T10:45:42.424Z,2.20
2022-08-28T10:48:19.504Z,2.10
2022-08-28T10:50:51.967Z,2.28
2022-08-28T10:53:26.313Z,2.30
2022-08-28T10:55:58.367Z,2.08
2022-08-28T10:58:28.587Z,1.92
2022-08-28T11:01:04.497Z,2.03
2022-08-28T11:03:41.457Z,2.05
2022-08-28T11:06:16.900Z,1.90
2022-08-28T11:08:53.089Z,1.50
2022-08-28T11:11:42.214Z,1.88
2022-08-28T11:14:11.959Z,2.00
2022-08-28T11:16:47.288Z,1.73
2022-08-28T11:19:43.943Z,1.70
2022-08-28T11:22:18.791Z,1.67
2022-08-28T11:24:59.164Z,1.83
2022-08-28T11:27:33.747Z,2.00
2022-08-28T11:30:19.453Z,1.88
2022-08-28T11:33:02.013Z,1.67
2022-08-28T11:35:43.869Z,1.65
2022-08-28T11:38:16.422Z,1.77
2022-08-28T11:40:58.028Z,2.10
2022-08-28T11:43:36.565Z,1.92
2022-08-28T11:46:32.753Z,1.90
2022-08-28T11:49:05.150Z,1.67
2022-08-28T11:52:06.912Z,1.80
2022-08-28T11:54:52.198Z,1.80
2022-08-28T11:57:26.487Z,1.40
2022-08-28T12:02:55.597Z,1.70
2022-08-28T12:05:57.386Z,2.30
2022-08-28T12:09:11.780Z,2.13
2022-08-28T12:12:04.061Z,1.70
2022-08-28T12:15:00.613Z,1.90
2022-08-28T12:17:50.780Z,1.98
2022-08-28T12:20:29.266Z,1.80
2022-08-28T12:23:01.421Z,1.98
2022-08-28T12:25:36.238Z,2.00
2022-08-28T12:28:16.716Z,1.70
2022-08-28T12:30:54.038Z,1.77
2022-08-28T12:33:31.905Z,1.55
2022-08-28T12:36:03.202Z,1.63
2022-08-28T12:38:35.450Z,1.90
2022-08-28T12:41:04.176Z,1.55
2022-08-28T12:43:41.688Z,1.80
2022-08-28T12:46:20.045Z,1.50
2022-08-28T12:48:51.631Z,1.37
2022-08-28T12:51:25.617Z,1.70
2022-08-28T12:53:57.709Z,1.60
2022-08-28T12:56:29.954Z,1.70
2022-08-28T12:59:35.712Z,1.45
2022-08-28T13:02:06.079Z,1.58
2022-08-28T13:04:38.376Z,1.40
2022-08-28T13:07:12.045Z,1.50
2022-08-28T13:09:47.865Z,1.63
2022-08-28T13:12:22.173Z,1.80
2022-08-28T13:15:02.206Z,1.55
2022-08-28T13:17:48.979Z,1.40
2022-08-28T13:20:28.813Z,1.33
2022-08-28T13:22:58.114Z,1.38
2022-08-28T13:25:29.851Z,1.33
2022-08-28T13:28:00.546Z,1.30
2022-08-28T13:30:33.650Z,1.58
2022-08-28T13:33:05.729Z,1.42
2022-08-28T13:35:41.179Z,1.40
2022-08-28T13:38:12.416Z,1.33
2022-08-28T13:41:01.835Z,1.45
2022-08-28T13:43:43.989Z,1.30
2022-08-28T13:46:14.229Z,1.25
2022-08-28T13:48:42.746Z,1.35
2022-08-28T13:51:21.182Z,1.45
2022-08-28T13:53:50.732Z,1.20
2022-08-28T13:56:21.947Z,1.40
2022-08-28T13:58:57.576Z,1.40
2022-08-28T14:01:48.138Z,1.50
2022-08-28T14:04:15.845Z,1.42
2022-08-28T14:06:44.926Z,1.27
2022-08-28T14:09:15.337Z,1.20
2022-08-28T14:11:47.818Z,1.60
2022-08-28T14:14:17.058Z,1.15
2022-08-28T14:16:47.328Z,1.10
2022-08-28T14:19:18.772Z,1.10
2022-08-28T14:21:47.332Z,1.48
2022-08-28T14:24:17.126Z,1.00
2022-08-28T14:26:48.379Z,1.10
2022-08-28T14:29:18.608Z,1.35
2022-08-28T14:32:04.119Z,1.10
2022-08-28T14:34:41.596Z,1.27
2022-08-28T14:37:10.452Z,1.13
2022-08-28T14:39:40.174Z,1.40
2022-08-28T14:42:23.176Z,1.33
2022-08-28T14:44:51.696Z,1.00
2022-08-28T14:47:21.892Z,0.90
2022-08-28T14:49:50.447Z,1.20
2022-08-28T14:52:20.118Z,1.00
2022-08-28T14:54:48.686Z,0.90
2022-08-28T14:57:17.545Z,1.20
2022-08-28T14:59:46.248Z,1.00
2022-08-28T15:02:14.864Z,1.20
2022-08-28T15:04:44.897Z,1.25
2022-08-28T15:07:13.760Z,0.98
2022-08-28T15:09:45.412Z,1.02
2022-08-28T15:12:13.966Z,1.10
2022-08-28T15:14:54.634Z,1.00
2022-08-28T15:17:33.741Z,1.20
2022-08-28T15:20:05.965Z,1.20
2022-08-28T15:22:34.563Z,1.00
2022-08-28T15:25:03.249Z,1.00
2022-08-28T15:27:31.828Z,1.00
2022-08-28T15:30:00.312Z,1.10
2022-08-28T15:32:28.809Z,1.10
2022-08-28T15:34:58.459Z,1.20
2022-08-28T15:37:29.402Z,1.13
2022-08-28T15:40:17.624Z,1.02
2022-08-28T15:42:46.169Z,0.90
2022-08-28T15:45:14.760Z,1.10
2022-08-28T15:47:43.361Z,0.80
2022-08-28T15:50:11.961Z,1.20
2022-08-28T15:52:48.398Z,0.88
2022-08-28T15:55:17.635Z,0.85
2022-08-28T15:57:47.111Z,0.80
2022-08-28T16:00:17.261Z,1.13
2022-08-28T16:02:46.002Z,1.13
2022-08-28T16:05:15.829Z,0.85
2022-08-28T16:07:46.535Z,0.80
2022-08-28T16:10:15.093Z,1.10
2022-08-28T16:12:43.598Z,1.00
2022-08-28T16:15:20.733Z,0.90
2022-08-28T16:17:49.879Z,1.20
2022-08-28T16:20:18.567Z,0.70
2022-08-28T16:22:48.470Z,1.05
2022-08-28T16:25:17.211Z,0.98
2022-08-28T16:27:45.810Z,0.90
2022-08-28T16:30:15.967Z,0.70
2022-08-28T16:32:46.854Z,1.08
2022-08-28T16:35:16.739Z,1.13
2022-08-28T16:37:45.839Z,0.90
2022-08-28T16:40:19.431Z,0.98
2022-08-28T16:42:51.719Z,1.00
2022-08-28T16:45:21.096Z,1.10
2022-08-28T16:47:50.108Z,1.17
2022-08-28T16:50:19.517Z,0.85
2022-08-28T16:52:48.426Z,0.90
2022-08-28T16:55:25.559Z,1.15
2022-08-28T17:00:27.200Z,1.00
2022-08-28T17:02:56.048Z,0.90
2022-08-28T17:05:25.765Z,1.20
2022-08-28T17:07:54.818Z,1.20
2022-08-28T17:10:26.166Z,0.90
2022-08-28T17:12:54.731Z,0.98
2022-08-28T17:15:23.296Z,1.00
2022-08-28T17:17:52.356Z,0.90
2022-08-28T17:20:37.474Z,1.17
2022-08-28T17:23:06.884Z,1.05
2022-08-28T17:25:37.328Z,1.10
2022-08-28T17:28:05.903Z,1.10
2022-08-28T17:30:34.679Z,1.05
2022-08-28T17:33:03.431Z,1.00
2022-08-28T17:35:32.237Z,1.00
2022-08-28T17:38:10.923Z,1.00
2022-08-28T17:40:43.239Z,0.88
2022-08-28T17:43:12.561Z,1.15
2022-08-28T17:45:41.170Z,1.00
2022-08-28T17:48:09.782Z,1.15
2022-08-28T17:50:38.402Z,0.82
2022-08-28T17:53:06.980Z,0.80
2022-08-28T17:55:36.292Z,0.90
2022-08-28T17:58:06.391Z,1.00
2022-08-28T18:00:35.002Z,0.90
2022-08-28T18:03:03.817Z,1.00
2022-08-28T18:05:32.650Z,0.90
2022-08-28T18:08:01.225Z,1.00
2022-08-28T18:10:33.437Z,1.10
2022-08-28T18:13:02.452Z,1.20
2022-08-28T18:15:33.002Z,1.55
2022-08-28T18:18:08.481Z,1.10
2022-08-28T18:20:37.266Z,1.00
2022-08-28T18:23:05.955Z,0.95
2022-08-28T18:25:51.477Z,1.05
2022-08-28T18:30:59.579Z,0.90
2022-08-28T18:33:29.241Z,1.00
2022-08-28T18:35:58.043Z,1.00
2022-08-28T18:38:28.277Z,1.23
2022-08-28T18:40:57.008Z,0.88
2022-08-28T18:43:25.774Z,0.90
2022-08-28T18:45:55.650Z,1.00
2022-08-28T18:48:24.598Z,0.90
2022-08-28T18:50:53.449Z,1.00
2022-08-28T18:53:24.737Z,1.02
2022-08-28T18:55:55.040Z,1.00
2022-08-28T18:58:27.542Z,1.08
2022-08-28T19:00:57.598Z,1.00
2022-08-28T19:03:26.277Z,0.90
2022-08-28T19:05:56.117Z,0.93
2022-08-28T19:08:25.297Z,0.95
2022-08-28T19:10:54.646Z,1.00
2022-08-28T19:13:23.636Z,1.20
2022-08-28T19:15:53.497Z,0.98
2022-08-28T19:18:23.842Z,1.10
2022-08-28T19:20:52.673Z,1.10
2022-08-28T19:23:21.204Z,0.82
2022-08-28T19:25:50.123Z,1.02
2022-08-28T19:28:18.881Z,0.90
2022-08-28T19:30:48.353Z,0.98
2022-08-28T19:33:17.580Z,1.20
2022-08-28T19:35:50.202Z,1.00
2022-08-28T19:38:18.958Z,1.10
2022-08-28T19:40:48.207Z,0.90
2022-08-28T19:43:17.303Z,1.08
2022-08-28T19:45:51.937Z,1.00
2022-08-28T19:48:24.715Z,1.27
2022-08-28T19:51:04.070Z,1.02
2022-08-28T19:53:36.163Z,1.10
2022-08-28T19:56:06.139Z,1.05
2022-08-28T19:58:35.068Z,0.80
2022-08-28T20:01:05.505Z,1.40
2022-08-28T20:03:36.347Z,1.00
2022-08-28T20:06:06.838Z,1.10
2022-08-28T20:08:38.385Z,1.13
2022-08-28T20:11:11.417Z,1.20
2022-08-28T20:13:41.763Z,0.90
2022-08-28T20:16:15.813Z,1.20
2022-08-28T20:18:45.734Z,1.10
2022-08-28T20:21:18.682Z,1.10
2022-08-28T20:23:55.201Z,1.10
2022-08-28T20:26:28.351Z,1.15
2022-08-28T20:28:57.610Z,1.00
2022-08-28T20:31:29.206Z,1.27
2022-08-28T20:33:57.890Z,1.20
2022-08-28T20:36:28.083Z,1.10
2022-08-28T20:38:56.911Z,1.27
2022-08-28T20:41:25.872Z,1.15
2022-08-28T20:43:54.500Z,1.10
2022-08-28T20:46:23.193Z,1.20
2022-08-28T20:48:51.844Z,1.20
2022-08-28T20:51:40.488Z,1.35
2022-08-28T20:54:10.425Z,1.30
2022-08-28T20:56:39.535Z,1.40
2022-08-28T20:59:09.110Z,1.25
2022-08-28T21:01:37.758Z,1.10
2022-08-28T21:04:06.968Z,1.63
2022-08-28T21:06:35.546Z,1.30
2022-08-28T21:09:04.192Z,1.25
2022-08-28T21:11:34.044Z,1.10
2022-08-28T21:14:02.543Z,1.30
2022-08-28T21:16:31.180Z,1.33
2022-08-28T21:19:15.185Z,1.05
2022-08-28T21:21:45.243Z,1.40
2022-08-28T21:24:16.030Z,1.33
2022-08-28T21:26:51.524Z,1.10
2022-08-28T21:31:52.225Z,1.10
2022-08-28T21:34:21.875Z,1.05
2022-08-28T21:36:51.565Z,1.38
2022-08-28T21:39:21.359Z,1.23
2022-08-28T21:41:51.478Z,1.33
2022-08-28T21:44:19.984Z,1.40
2022-08-28T21:46:48.483Z,1.20
2022-08-28T21:49:16.990Z,1.30
2022-08-28T21:51:45.648Z,1.40
2022-08-28T21:54:14.137Z,1.45
2022-08-28T21:56:43.180Z,1.40
2022-08-28T21:59:13.424Z,1.35
2022-08-28T22:01:42.248Z,1.33
2022-08-28T22:04:11.393Z,1.70
2022-08-28T22:06:40.722Z,1.40
2022-08-28T22:09:10.148Z,1.30
2022-08-28T22:11:38.732Z,1.50
2022-08-28T22:14:07.265Z,1.20
2022-08-28T22:16:37.182Z,1.30
2022-08-28T22:19:06.355Z,1.23
2022-08-28T22:21:52.465Z,1.20
2022-08-28T22:24:21.001Z,1.10
2022-08-28T22:26:50.498Z,1.23
2022-08-28T22:29:25.917Z,1.00
2022-08-28T22:31:55.872Z,1.40
2022-08-28T22:34:24.709Z,1.30
2022-08-28T22:36:53.262Z,1.50
2022-08-28T22:39:21.789Z,1.40
2022-08-28T22:41:50.980Z,1.85
2022-08-28T22:44:19.590Z,1.40
2022-08-28T22:46:48.105Z,1.50
2022-08-28T22:49:17.971Z,1.40
2022-08-28T22:51:46.513Z,1.50
2022-08-28T22:54:15.015Z,1.50
2022-08-28T22:56:43.780Z,1.42
2022-08-28T22:59:12.313Z,1.50
2022-08-28T23:01:42.332Z,1.40
2022-08-28T23:04:11.503Z,1.27
2022-08-28T23:06:41.825Z,1.40
2022-08-28T23:09:10.741Z,1.38
2022-08-28T23:11:39.364Z,1.40
2022-08-28T23:14:07.891Z,1.55
2022-08-28T23:16:36.451Z,1.20
2022-08-28T23:19:09.057Z,1.38
2022-08-28T23:21:40.194Z,1.27
2022-08-28T23:24:13.626Z,1.30
2022-08-28T23:26:42.434Z,1.20
2022-08-28T23:29:11.679Z,1.40
2022-08-28T23:31:40.770Z,1.38
2022-08-28T23:34:09.524Z,1.25
2022-08-28T23:36:39.642Z,1.70
2022-08-28T23:39:13.443Z,1.40
2022-08-28T23:41:42.135Z,1.40
2022-08-28T23:44:10.990Z,1.40
2022-08-28T23:46:41.076Z,1.58
2022-08-28T23:49:10.692Z,1.20
2022-08-28T23:51:39.309Z,1.30
2022-08-28T23:54:09.460Z,1.27
2022-08-28T23:56:39.408Z,1.60
2022-08-28T23:59:08.291Z,1.30
